This is the latest recevied weather packets stored in our database for station/object IW0REF-8. If no packets are shown the sender has not sent any weather packets the latest 10 day(s).
| Time | Temp. | Humidity | Pressure | Rain* | Wind** | Luminosity | Snow |
|---|---|---|---|---|---|---|---|
| 1777134310 | 31.11° C | 13% | 1012.9 hPa | - | - | - | - |
| 1777133410 | 31.11° C | 12% | 1012.6 hPa | - | - | - | - |
| 1777132510 | 29.44° C | 13% | 1013 hPa | - | - | - | - |
| 1777131610 | 29.44° C | 12% | 1012.6 hPa | - | - | - | - |
| 1777130710 | 27.22° C | 15% | 1013.4 hPa | - | - | - | - |
| 1777129809 | 26.67° C | 14% | 1013.1 hPa | - | - | - | - |
| 1777128909 | 28.89° C | 13% | 1012.6 hPa | - | - | - | - |
| 1777128009 | 29.44° C | 12% | 1012.4 hPa | - | - | - | - |
| 1777127109 | 28.89° C | 12% | 1012.6 hPa | - | - | - | - |
| 1777126209 | 29.44° C | 14% | 1013 hPa | - | - | - | - |
| 1777125309 | 30° C | 12% | 1013 hPa | - | - | - | - |
| 1777124409 | 28.89° C | 11% | 1012.7 hPa | - | - | - | - |
| 1777123508 | 28.89° C | 10% | 1012.3 hPa | - | - | - | - |
| 1777122608 | 28.89° C | 11% | 1012.6 hPa | - | - | - | - |
| 1777121708 | 28.33° C | 10% | 1012.6 hPa | - | - | - | - |
| 1777120808 | 28.33° C | 9% | 1012.6 hPa | - | - | - | - |
| 1777119908 | 27.78° C | 8% | 1012.5 hPa | - | - | - | - |
| 1777119004 | 27.78° C | 12% | 1013.8 hPa | - | - | - | - |
| 1777118104 | 27.22° C | 13% | 1014.3 hPa | - | - | - | - |
| 1777117200 | 26.11° C | 15% | 1015 hPa | - | - | - | - |
| 1777116300 | 26.67° C | 18% | 1015.7 hPa | - | - | - | - |
| 1777115400 | 27.22° C | 16% | 1015.6 hPa | - | - | - | - |
| 1777114500 | 26.11° C | 19% | 1016.5 hPa | - | - | - | - |
| 1777113597 | 25.56° C | 19% | 1016.8 hPa | - | - | - | - |
| 1777112695 | 25.56° C | 20% | 1017.2 hPa | - | - | - | - |
* Rain since midnight (hover to see other rain measurements)
** Current wind speed in m/s (hover to see current wind gust speed)